Time;durP1;ratioP1;P1;durP2;ratioP2;P2;SDS_P1;SDS_P2;PMS_P1;PMS_P2;Temp;Humidity;BMP_temperature;BMP_pressure;BME280_temperature;BME280_humidity;BME280_pressure;Samples;Min_cycle;Max_cycle;Signal;HPM_P1;HPM_P2
2021/09/06 00:02:13;;;;;;;17.67;7.40;;;;;;;;;;4943819;29;20054;-57
2021/09/06 00:04:40;;;;;;;17.90;7.53;;;;;;;;;;4911975;29;20051;-56
2021/09/06 00:07:06;;;;;;;14.55;6.35;;;;;;;;;;4928097;29;20051;-54
2021/09/06 00:09:33;;;;;;;14.05;6.88;;;;;;;;;;4912039;29;20048;-57
2021/09/06 00:11:59;;;;;;;13.55;6.53;;;;;;;;;;4942359;29;20059;-53
2021/09/06 00:14:26;;;;;;;14.00;6.70;;;;;;;;;;4931523;29;20051;-58
2021/09/06 00:16:52;;;;;;;15.77;7.03;;;;;;;;;;4945061;29;20040;-57
2021/09/06 00:19:23;;;;;;;14.15;6.82;;;;;;;;;;4950327;28;20040;-55
2021/09/06 00:21:50;;;;;;;15.48;6.53;;;;;;;;;;4909884;29;20040;-57
2021/09/06 00:24:16;;;;;;;14.20;6.78;;;;;;;;;;4908402;29;20541;-56
2021/09/06 00:26:43;;;;;;;13.50;6.75;;;;;;;;;;4924898;29;20051;-54
2021/09/06 00:29:09;;;;;;;14.80;6.88;;;;;;;;;;4923446;28;20055;-54
2021/09/06 00:31:36;;;;;;;16.38;7.78;;;;;;;;;;4928160;29;20058;-57
2021/09/06 00:34:02;;;;;;;14.75;7.38;;;;;;;;;;4925356;29;20066;-56
2021/09/06 00:36:30;;;;;;;17.83;7.35;;;;;;;;;;4926344;29;20066;-57
2021/09/06 00:38:56;;;;;;;16.07;7.57;;;;;;;;;;4944078;29;20051;-57
2021/09/06 00:41:24;;;;;;;15.85;7.30;;;;;;;;;;4908478;29;20051;-56
2021/09/06 00:43:51;;;;;;;15.52;6.82;;;;;;;;;;4925161;29;20054;-57
2021/09/06 00:46:18;;;;;;;14.07;6.85;;;;;;;;;;4904736;29;20058;-56
2021/09/06 00:48:44;;;;;;;13.80;7.15;;;;;;;;;;4924920;29;20048;-56
2021/09/06 00:51:10;;;;;;;14.48;6.97;;;;;;;;;;4930501;28;20048;-56
2021/09/06 00:53:38;;;;;;;13.05;6.47;;;;;;;;;;4908697;29;20044;-55
2021/09/06 00:56:05;;;;;;;13.05;7.07;;;;;;;;;;4905107;29;20059;-56
2021/09/06 00:58:32;;;;;;;15.50;7.00;;;;;;;;;;4922680;29;20048;-57
2021/09/06 01:00:58;;;;;;;17.48;7.93;;;;;;;;;;4928583;29;20044;-57
2021/09/06 01:03:25;;;;;;;16.92;6.75;;;;;;;;;;4945071;29;20043;-56
2021/09/06 01:05:51;;;;;;;17.20;7.28;;;;;;;;;;4933532;29;20076;-56
2021/09/06 01:08:18;;;;;;;15.80;6.70;;;;;;;;;;4908906;29;20036;-57
2021/09/06 01:10:46;;;;;;;15.15;6.85;;;;;;;;;;4911354;28;20036;-56
2021/09/06 01:13:12;;;;;;;13.70;6.80;;;;;;;;;;4927497;29;20041;-55
2021/09/06 01:15:39;;;;;;;12.60;6.78;;;;;;;;;;4926839;29;20036;-57
2021/09/06 01:18:06;;;;;;;14.20;6.82;;;;;;;;;;4923344;29;20052;-56
2021/09/06 01:20:33;;;;;;;19.75;6.45;;;;;;;;;;4908437;29;20047;-56
2021/09/06 01:22:59;;;;;;;14.63;6.70;;;;;;;;;;4906104;29;20066;-56
2021/09/06 01:25:25;;;;;;;12.38;6.43;;;;;;;;;;4927443;29;20040;-55
2021/09/06 01:27:53;;;;;;;12.68;6.07;;;;;;;;;;4907360;29;20048;-57
2021/09/06 01:30:20;;;;;;;14.32;6.65;;;;;;;;;;4923083;29;20044;-56
2021/09/06 01:32:52;;;;;;;14.27;7.05;;;;;;;;;;4931802;28;20114;-56
2021/09/06 01:35:19;;;;;;;14.45;6.93;;;;;;;;;;4925612;29;20160;-56
2021/09/06 01:37:48;;;;;;;13.02;6.85;;;;;;;;;;4931484;28;20056;-57
2021/09/06 01:40:15;;;;;;;13.68;6.97;;;;;;;;;;4922626;29;20063;-56
2021/09/06 01:42:41;;;;;;;16.35;6.35;;;;;;;;;;4920149;29;20060;-55
2021/09/06 01:45:10;;;;;;;14.77;6.60;;;;;;;;;;4908547;29;20066;-56
2021/09/06 01:47:36;;;;;;;;;;;;;;;;;;4911178;29;20055;-53
2021/09/06 01:50:02;;;;;;;15.27;6.65;;;;;;;;;;4926388;29;19922;-56
2021/09/06 01:52:29;;;;;;;13.25;6.60;;;;;;;;;;4923578;29;20036;-55
2021/09/06 01:54:57;;;;;;;;;;;;;;;;;;4926927;29;20064;-55
2021/09/06 01:57:24;;;;;;;;;;;;;;;;;;4941292;29;19926;-55
2021/09/06 01:59:50;;;;;;;;;;;;;;;;;;4909566;29;19930;-56
2021/09/06 02:02:16;;;;;;;;;;;;;;;;;;4923121;29;19922;-54
2021/09/06 02:04:42;;;;;;;;;;;;;;;;;;4931779;28;20229;-55
2021/09/06 02:07:09;;;;;;;;;;;;;;;;;;4906631;29;19926;-56
2021/09/06 02:09:35;;;;;;;;;;;;;;;;;;4937893;28;19923;-56
2021/09/06 02:12:01;;;;;;;;;;;;;;;;;;4926283;29;19931;-56
2021/09/06 02:14:27;;;;;;;;;;;;;;;;;;4913378;29;19954;-55
2021/09/06 02:16:54;;;;;;;;;;;;;;;;;;4909881;29;19927;-57
2021/09/06 02:19:21;;;;;;;;;;;;;;;;;;4924761;28;20017;-56
2021/09/06 02:21:48;;;;;;;;;;;;;;;;;;4909804;29;19930;-56
2021/09/06 02:24:14;;;;;;;;;;;;;;;;;;4906799;29;19930;-57
2021/09/06 02:26:41;;;;;;;;;;;;;;;;;;4910014;29;19923;-57
2021/09/06 02:29:07;;;;;;;;;;;;;;;;;;4910841;29;19934;-55
2021/09/06 02:31:33;;;;;;;;;;;;;;;;;;4928814;29;19927;-56
2021/09/06 02:33:59;;;;;;;;;;;;;;;;;;4940229;28;19967;-56
2021/09/06 02:36:26;;;;;;;;;;;;;;;;;;4909501;29;19933;-56
2021/09/06 02:38:52;;;;;;;;;;;;;;;;;;4909959;29;19931;-55
2021/09/06 02:41:18;;;;;;;;;;;;;;;;;;4923765;29;19930;-57
2021/09/06 02:43:44;;;;;;;;;;;;;;;;;;4909646;29;19915;-56
2021/09/06 02:46:11;;;;;;;;;;;;;;;;;;4921839;29;19942;-56
2021/09/06 02:48:37;;;;;;;;;;;;;;;;;;4928612;29;20352;-56
2021/09/06 02:51:03;;;;;;;;;;;;;;;;;;4928348;28;20014;-56
2021/09/06 02:53:30;;;;;;;;;;;;;;;;;;4926553;29;19998;-57
2021/09/06 02:55:56;;;;;;;;;;;;;;;;;;4937710;28;19930;-56
2021/09/06 02:58:22;;;;;;;;;;;;;;;;;;4930228;29;20005;-55
2021/09/06 03:00:48;;;;;;;;;;;;;;;;;;4942878;28;19933;-57
2021/09/06 03:03:15;;;;;;;;;;;;;;;;;;4928158;29;20013;-55
2021/09/06 03:05:41;;;;;;;;;;;;;;;;;;4922186;29;19926;-57
2021/09/06 03:08:14;;;;;;;;;;;;;;;;;;4925109;29;19931;-55
2021/09/06 03:10:42;;;;;;;;;;;;;;;;;;4921058;29;19931;-56
2021/09/06 03:13:08;;;;;;;;;;;;;;;;;;4909670;29;19915;-54
2021/09/06 03:15:37;;;;;;;;;;;;;;;;;;4906666;28;20167;-53
2021/09/06 03:18:04;;;;;;;;;;;;;;;;;;4926032;29;19982;-54
2021/09/06 03:20:30;;;;;;;;;;;;;;;;;;4907669;28;19922;-55
2021/09/06 03:22:58;;;;;;;;;;;;;;;;;;4924009;28;19935;-55
2021/09/06 03:25:24;;;;;;;;;;;;;;;;;;4929367;29;19933;-56
2021/09/06 03:27:53;;;;;;;;;;;;;;;;;;4921829;29;19926;-56
2021/09/06 03:30:19;;;;;;;;;;;;;;;;;;4909335;29;19927;-56
2021/09/06 03:32:45;;;;;;;;;;;;;;;;;;4924108;28;19938;-57
2021/09/06 03:35:14;;;;;;;;;;;;;;;;;;4911124;29;19923;-57
2021/09/06 03:37:40;;;;;;;;;;;;;;;;;;4907410;29;20021;-56
2021/09/06 03:40:07;;;;;;;;;;;;;;;;;;4909098;29;19930;-55
2021/09/06 03:42:33;;;;;;;;;;;;;;;;;;4915202;29;20001;-56
2021/09/06 03:44:59;;;;;;;;;;;;;;;;;;4927820;29;19937;-52
2021/09/06 03:47:26;;;;;;;;;;;;;;;;;;4917520;29;19923;-55
2021/09/06 03:49:52;;;;;;;;;;;;;;;;;;4908548;29;19934;-56
2021/09/06 03:52:18;;;;;;;;;;;;;;;;;;4909908;29;19923;-56
2021/09/06 03:54:44;;;;;;;;;;;;;;;;;;4927933;29;19930;-54
2021/09/06 03:57:11;;;;;;;;;;;;;;;;;;4923460;28;20009;-55
2021/09/06 03:59:37;;;;;;;;;;;;;;;;;;4927650;29;19926;-55
2021/09/06 04:02:03;;;;;;;;;;;;;;;;;;4926736;29;20017;-54
2021/09/06 04:04:30;;;;;;;;;;;;;;;;;;4922537;28;19923;-54
2021/09/06 04:06:57;;;;;;;;;;;;;;;;;;4925360;29;19927;-56
2021/09/06 04:09:24;;;;;;;;;;;;;;;;;;4917050;29;19935;-55
2021/09/06 04:11:50;;;;;;;;;;;;;;;;;;4927155;29;19978;-55
2021/09/06 04:14:17;;;;;;;;;;;;;;;;;;4910177;29;19937;-54
2021/09/06 04:16:44;;;;;;;;;;;;;;;;;;4908394;29;19959;-55
2021/09/06 04:19:10;;;;;;;;;;;;;;;;;;4922777;28;19923;-56
2021/09/06 04:21:37;;;;;;;;;;;;;;;;;;4908571;29;20067;-57
2021/09/06 04:24:03;;;;;;;;;;;;;;;;;;4922646;28;19927;-55
2021/09/06 04:26:31;;;;;;;;;;;;;;;;;;4908353;29;19923;-55
2021/09/06 04:28:58;;;;;;;;;;;;;;;;;;4904998;29;19926;-53
2021/09/06 04:31:24;;;;;;;;;;;;;;;;;;4908125;29;19923;-56
2021/09/06 04:33:50;;;;;;;;;;;;;;;;;;4908105;29;19939;-56
2021/09/06 04:36:18;;;;;;;;;;;;;;;;;;4927192;29;20009;-54
2021/09/06 04:38:44;;;;;;;;;;;;;;;;;;4923925;28;19919;-55
2021/09/06 04:41:10;;;;;;;;;;;;;;;;;;4908821;29;19923;-55
2021/09/06 04:43:36;;;;;;;;;;;;;;;;;;4907651;29;19948;-54
2021/09/06 04:46:03;;;;;;;;;;;;;;;;;;4940676;28;19926;-56
2021/09/06 04:48:29;;;;;;;;;;;;;;;;;;4928182;29;19932;-55
2021/09/06 04:50:55;;;;;;;;;;;;;;;;;;4919505;29;19933;-54
2021/09/06 04:53:22;;;;;;;;;;;;;;;;;;4925282;29;19931;-57
2021/09/06 04:55:48;;;;;;;;;;;;;;;;;;4911184;29;20026;-56
2021/09/06 04:58:14;;;;;;;;;;;;;;;;;;4908747;29;20002;-54
2021/09/06 05:00:40;;;;;;;;;;;;;;;;;;4905165;29;20010;-55
2021/09/06 05:03:06;;;;;;;;;;;;;;;;;;4908625;29;20002;-56
2021/09/06 05:05:33;;;;;;;;;;;;;;;;;;4916362;29;19919;-56
2021/09/06 05:07:59;;;;;;;;;;;;;;;;;;4927908;28;19929;-56
2021/09/06 05:10:25;;;;;;;;;;;;;;;;;;4924157;29;19930;-55
2021/09/06 05:12:51;;;;;;;;;;;;;;;;;;4927603;29;19926;-57
2021/09/06 05:15:18;;;;;;;;;;;;;;;;;;4921493;29;20045;-53
2021/09/06 05:17:44;;;;;;;;;;;;;;;;;;4926175;29;19934;-52
2021/09/06 05:20:11;;;;;;;;;;;;;;;;;;4938619;28;19959;-53
2021/09/06 05:22:37;;;;;;;;;;;;;;;;;;4924439;29;19923;-52
2021/09/06 05:25:03;;;;;;;;;;;;;;;;;;4925596;29;19943;-53
2021/09/06 05:27:29;;;;;;;;;;;;;;;;;;4939232;28;19926;-53
2021/09/06 05:29:56;;;;;;;;;;;;;;;;;;4926173;29;20009;-56
2021/09/06 05:32:22;;;;;;;;;;;;;;;;;;4917426;29;19931;-54
2021/09/06 05:34:48;;;;;;;;;;;;;;;;;;4925996;29;19930;-51
2021/09/06 05:37:15;;;;;;;;;;;;;;;;;;4940211;28;19938;-55
2021/09/06 05:39:41;;;;;;;;;;;;;;;;;;4943096;29;19951;-54
2021/09/06 05:42:08;;;;;;;;;;;;;;;;;;4920845;29;20471;-54
2021/09/06 05:44:34;;;;;;;;;;;;;;;;;;4927139;29;19931;-55
2021/09/06 05:47:00;;;;;;;;;;;;;;;;;;4938335;29;19926;-56
2021/09/06 05:49:27;;;;;;;;;;;;;;;;;;4928662;29;19918;-52
2021/09/06 05:51:53;;;;;;;;;;;;;;;;;;4941639;28;19970;-54
2021/09/06 05:54:19;;;;;;;;;;;;;;;;;;4928094;29;19919;-54
2021/09/06 05:56:45;;;;;;;;;;;;;;;;;;4940866;28;19938;-52
2021/09/06 05:59:12;;;;;;;;;;;;;;;;;;4928054;29;19933;-55
2021/09/06 06:01:38;;;;;;;;;;;;;;;;;;4928628;29;19934;-54
2021/09/06 06:04:04;;;;;;;;;;;;;;;;;;4928826;28;19922;-52
2021/09/06 06:06:31;;;;;;;;;;;;;;;;;;4931037;29;19950;-53
2021/09/06 06:08:57;;;;;;;;;;;;;;;;;;4938717;28;19922;-53
2021/09/06 06:11:23;;;;;;;;;;;;;;;;;;4936359;29;19927;-54
2021/09/06 06:13:49;;;;;;;;;;;;;;;;;;4911719;29;19923;-53
2021/09/06 06:16:17;;;;;;;;;;;;;;;;;;4926125;29;19926;-53
2021/09/06 06:18:43;;;;;;;;;;;;;;;;;;4917115;29;19934;-55
2021/09/06 06:21:11;;;;;;;;;;;;;;;;;;4929745;29;19934;-53
2021/09/06 06:23:37;;;;;;;;;;;;;;;;;;4917257;29;19934;-54
2021/09/06 06:26:03;;;;;;;;;;;;;;;;;;4946237;28;19923;-54
2021/09/06 06:28:30;;;;;;;;;;;;;;;;;;4924833;29;19926;-53
2021/09/06 06:30:56;;;;;;;;;;;;;;;;;;4928489;29;19923;-54
2021/09/06 06:33:22;;;;;;;;;;;;;;;;;;4939692;28;19926;-52
2021/09/06 06:35:49;;;;;;;;;;;;;;;;;;4926603;29;19931;-55
2021/09/06 06:38:15;;;;;;;;;;;;;;;;;;4907724;29;19930;-56
2021/09/06 06:40:41;;;;;;;;;;;;;;;;;;4926283;29;19922;-54
2021/09/06 06:43:07;;;;;;;;;;;;;;;;;;4911153;29;19923;-53
2021/09/06 06:45:34;;;;;;;;;;;;;;;;;;4924440;29;19978;-51
2021/09/06 06:48:00;;;;;;;;;;;;;;;;;;4929169;29;20054;-55
2021/09/06 06:50:26;;;;;;;;;;;;;;;;;;4925191;29;19947;-56
2021/09/06 06:52:54;;;;;;;;;;;;;;;;;;4945662;29;19934;-54
2021/09/06 06:55:21;;;;;;;;;;;;;;;;;;4929309;29;19927;-54
2021/09/06 06:57:48;;;;;;;;;;;;;;;;;;4909562;29;19915;-55
2021/09/06 07:00:14;;;;;;;;;;;;;;;;;;4915670;29;19942;-49
2021/09/06 07:02:40;;;;;;;;;;;;;;;;;;4943232;29;19919;-52
2021/09/06 07:05:07;;;;;;;;;;;;;;;;;;4917331;29;19923;-55
2021/09/06 07:07:33;;;;;;;;;;;;;;;;;;4909263;29;19935;-54
2021/09/06 07:10:00;;;;;;;;;;;;;;;;;;4906557;29;19937;-56
2021/09/06 07:12:26;;;;;;;;;;;;;;;;;;4928286;29;19918;-53
2021/09/06 07:14:52;;;;;;;;;;;;;;;;;;4922879;28;19922;-52
2021/09/06 07:17:19;;;;;;;;;;;;;;;;;;4908794;29;19943;-54
2021/09/06 07:19:45;;;;;;;;;;;;;;;;;;4908733;29;19941;-53
2021/09/06 07:22:11;;;;;;;;;;;;;;;;;;4922784;29;19986;-53
2021/09/06 07:24:38;;;;;;;;;;;;;;;;;;4908775;29;19927;-53
2021/09/06 07:27:04;;;;;;;;;;;;;;;;;;4938150;28;19924;-52
2021/09/06 07:29:30;;;;;;;;;;;;;;;;;;4927869;29;19933;-53
2021/09/06 07:31:57;;;;;;;;;;;;;;;;;;4910786;29;20013;-53
2021/09/06 07:34:23;;;;;;;;;;;;;;;;;;4908922;29;19968;-56
2021/09/06 07:36:49;;;;;;;;;;;;;;;;;;4936035;28;19926;-51
2021/09/06 07:39:16;;;;;;;;;;;;;;;;;;4927536;29;19926;-52
2021/09/06 07:41:43;;;;;;;;;;;;;;;;;;4907393;29;19930;-53
2021/09/06 07:44:09;;;;;;;;;;;;;;;;;;4909436;29;20006;-51
2021/09/06 07:46:36;;;;;;;;;;;;;;;;;;4906336;29;19919;-52
2021/09/06 07:49:02;;;;;;;;;;;;;;;;;;4925761;29;20108;-52
2021/09/06 07:51:29;;;;;;;;;;;;;;;;;;4905790;29;19919;-54
2021/09/06 07:53:55;;;;;;;;;;;;;;;;;;4908774;29;20055;-55
2021/09/06 07:56:21;;;;;;;;;;;;;;;;;;4922009;28;19939;-53
2021/09/06 07:58:48;;;;;;;;;;;;;;;;;;4909126;29;19929;-51
2021/09/06 08:01:14;;;;;;;;;;;;;;;;;;4909407;29;19927;-53
2021/09/06 08:03:40;;;;;;;;;;;;;;;;;;4922700;28;19963;-51
2021/09/06 08:06:06;;;;;;;;;;;;;;;;;;4927042;29;20002;-56
2021/09/06 08:08:33;;;;;;;;;;;;;;;;;;4940853;29;19943;-55
2021/09/06 08:10:59;;;;;;;;;;;;;;;;;;4927591;29;20066;-55
2021/09/06 08:13:25;;;;;;;;;;;;;;;;;;4911714;29;19974;-51
2021/09/06 08:15:51;;;;;;;;;;;;;;;;;;4925274;29;20414;-56
2021/09/06 08:18:17;;;;;;;;;;;;;;;;;;4906890;29;20056;-56
2021/09/06 08:20:44;;;;;;;;;;;;;;;;;;4927081;29;19919;-55
2021/09/06 08:23:10;;;;;;;;;;;;;;;;;;4922913;28;19927;-52
2021/09/06 08:25:39;;;;;;;;;;;;;;;;;;4908023;29;19942;-51
2021/09/06 08:28:05;;;;;;;;;;;;;;;;;;4909754;29;20009;-56
2021/09/06 08:30:32;;;;;;;;;;;;;;;;;;4927448;29;19918;-54
2021/09/06 08:32:58;;;;;;;;;;;;;;;;;;4922766;28;19987;-52
2021/09/06 08:35:24;;;;;;;;;;;;;;;;;;4944188;29;19919;-53
2021/09/06 08:37:51;;;;;;;;;;;;;;;;;;4941863;28;19922;-56
2021/09/06 08:40:17;;;;;;;;;;;;;;;;;;4938325;28;19935;-55
2021/09/06 08:42:43;;;;;;;;;;;;;;;;;;4907564;29;19926;-53
2021/09/06 08:45:10;;;;;;;;;;;;;;;;;;4937243;29;19927;-50
2021/09/06 08:47:38;;;;;;;;;;;;;;;;;;4926918;29;19923;-52
2021/09/06 08:50:04;;;;;;;;;;;;;;;;;;4922432;29;19938;-54
2021/09/06 08:52:31;;;;;;;;;;;;;;;;;;4925867;29;19919;-52
2021/09/06 08:54:57;;;;;;;;;;;;;;;;;;4911529;29;20022;-56
2021/09/06 08:57:23;;;;;;;;;;;;;;;;;;4907430;29;19928;-55
2021/09/06 08:59:49;;;;;;;;;;;;;;;;;;4903650;29;19923;-56
2021/09/06 09:02:16;;;;;;;;;;;;;;;;;;4907747;29;19934;-55
2021/09/06 09:04:42;;;;;;;;;;;;;;;;;;4897210;29;19943;-53
2021/09/06 09:07:08;;;;;;;;;;;;;;;;;;4888613;29;19919;-55
2021/09/06 09:09:35;;;;;;;;;;;;;;;;;;4903011;29;19939;-57
2021/09/06 09:12:02;;;;;;;;;;;;;;;;;;4921641;29;20055;-56
2021/09/06 09:14:28;;;;;;;;;;;;;;;;;;4918761;29;20006;-53
2021/09/06 09:16:54;;;;;;;;;;;;;;;;;;4889138;29;19915;-57
2021/09/06 09:19:20;;;;;;;;;;;;;;;;;;4890685;29;19927;-56
2021/09/06 09:21:47;;;;;;;;;;;;;;;;;;4889330;29;19927;-56
2021/09/06 09:24:13;;;;;;;;;;;;;;;;;;4891966;29;19919;-56
2021/09/06 09:26:39;;;;;;;;;;;;;;;;;;4888813;29;20022;-57
2021/09/06 09:29:08;;;;;;;;;;;;;;;;;;4910332;29;19923;-57
2021/09/06 09:31:34;;;;;;;;;;;;;;;;;;4911047;29;20014;-57
2021/09/06 09:34:00;;;;;;;;;;;;;;;;;;4891694;29;19919;-55
2021/09/06 09:36:27;;;;;;;;;;;;;;;;;;4889308;29;19927;-54
2021/09/06 09:38:53;;;;;;;;;;;;;;;;;;4908671;29;19927;-57
2021/09/06 09:41:19;;;;;;;;;;;;;;;;;;4912782;29;19938;-54
2021/09/06 09:43:45;;;;;;;;;;;;;;;;;;4910957;29;19939;-56
2021/09/06 09:46:11;;;;;;;;;;;;;;;;;;4905787;29;19936;-57
2021/09/06 09:48:38;;;;;;;;;;;;;;;;;;4910631;29;19923;-55
2021/09/06 09:51:06;;;;;;;;;;;;;;;;;;4906422;29;19938;-55
2021/09/06 09:53:32;;;;;;;;;;;;;;;;;;4911093;29;20006;-57
2021/09/06 09:55:59;;;;;;;;;;;;;;;;;;4908700;29;19926;-55
2021/09/06 09:58:26;;;;;;;;;;;;;;;;;;4912558;29;20006;-52
2021/09/06 10:00:54;;;;;;;;;;;;;;;;;;4910352;29;19930;-56
2021/09/06 10:03:20;;;;;;;;;;;;;;;;;;4890137;29;19983;-56
2021/09/06 10:05:46;;;;;;;;;;;;;;;;;;4910363;29;19950;-54
2021/09/06 10:08:13;;;;;;;;;;;;;;;;;;4905994;29;19927;-57
2021/09/06 10:10:39;;;;;;;;;;;;;;;;;;4933130;29;19981;-56
2021/09/06 10:13:05;;;;;;;;;;;;;;;;;;4913169;29;19926;-57
2021/09/06 10:15:32;;;;;;;;;;;;;;;;;;4909902;29;19942;-56
2021/09/06 10:18:00;;;;;;;;;;;;;;;;;;4916035;29;19922;-57
2021/09/06 10:20:26;;;;;;;;;;;;;;;;;;4929031;29;19927;-54
2021/09/06 10:22:52;;;;;;;;;;;;;;;;;;4935640;28;20025;-57
2021/09/06 10:25:19;;;;;;;;;;;;;;;;;;4909741;29;20033;-58
2021/09/06 10:27:45;;;;;;;;;;;;;;;;;;4906217;29;19927;-58
2021/09/06 10:30:11;;;;;;;;;;;;;;;;;;4909797;29;19983;-57
2021/09/06 10:32:37;;;;;;;;;;;;;;;;;;4908717;28;19949;-57
2021/09/06 10:35:04;;;;;;;;;;;;;;;;;;4927897;29;19918;-58
2021/09/06 10:37:39;;;;;;;;;;;;;;;;;;4925706;28;19926;-59
2021/09/06 10:40:06;;;;;;;;;;;;;;;;;;4926466;29;19922;-54
2021/09/06 10:42:32;;;;;;;;;;;;;;;;;;4909828;29;19982;-59
2021/09/06 10:44:58;;;;;;;;;;;;;;;;;;4921529;28;19923;-58
2021/09/06 10:47:27;;;;;;;;;;;;;;;;;;4940883;28;19926;-58
2021/09/06 10:49:53;;;;;;;;;;;;;;;;;;4913770;29;19923;-58
2021/09/06 10:52:22;;;;;;;;;;;;;;;;;;4929266;28;19938;-58
2021/09/06 10:54:48;;;;;;;;;;;;;;;;;;4928666;29;19918;-58
2021/09/06 10:57:14;;;;;;;;;;;;;;;;;;4928333;29;19926;-59
2021/09/06 10:59:43;;;;;;;;;;;;;;;;;;4915651;29;20006;-59
2021/09/06 11:02:10;;;;;;;;;;;;;;;;;;4909568;29;19937;-56
2021/09/06 11:04:36;;;;;;;;;;;;;;;;;;4913177;29;19963;-58
2021/09/06 11:07:06;;;;;;;;;;;;;;;;;;4944557;29;19927;-58
2021/09/06 11:09:32;;;;;;;;;;;;;;;;;;4923409;29;19962;-58
2021/09/06 11:11:58;;;;;;;;;;;;;;;;;;4902515;29;19927;-58
2021/09/06 11:14:25;;;;;;;;;;;;;;;;;;4909778;29;19955;-58
2021/09/06 11:16:51;;;;;;;;;;;;;;;;;;4927968;29;19923;-58
2021/09/06 11:19:17;;;;;;;;;;;;;;;;;;4923605;28;19931;-58
2021/09/06 11:21:43;;;;;;;;;;;;;;;;;;4908463;29;19931;-58
2021/09/06 11:24:10;;;;;;;;;;;;;;;;;;4910270;29;19919;-58
2021/09/06 11:26:36;;;;;;;;;;;;;;;;;;4906203;29;20054;-57
2021/09/06 11:29:02;;;;;;;;;;;;;;;;;;4921602;29;19926;-58
2021/09/06 11:31:29;;;;;;;;;;;;;;;;;;4923855;29;19929;-57
2021/09/06 11:33:55;;;;;;;;;;;;;;;;;;4945996;29;19994;-58
2021/09/06 11:36:21;;;;;;;;;;;;;;;;;;4911356;29;20001;-59
2021/09/06 11:38:49;;;;;;;;;;;;;;;;;;4910425;29;19935;-57
2021/09/06 11:41:15;;;;;;;;;;;;;;;;;;4914300;29;19937;-57
2021/09/06 11:43:42;;;;;;;;;;;;;;;;;;4927801;29;19932;-58
2021/09/06 11:46:08;;;;;;;;;;;;;;;;;;4923438;29;19990;-56
2021/09/06 11:48:34;;;;;;;;;;;;;;;;;;4928293;29;19933;-57
2021/09/06 11:51:01;;;;;;;;;;;;;;;;;;4918560;29;19931;-58
2021/09/06 11:53:27;;;;;;;;;;;;;;;;;;4908816;29;19944;-58
2021/09/06 11:55:53;;;;;;;;;;;;;;;;;;4918095;28;19927;-58
2021/09/06 11:58:19;;;;;;;;;;;;;;;;;;4927364;29;19935;-58
2021/09/06 12:00:46;;;;;;;;;;;;;;;;;;4941762;28;19926;-58
2021/09/06 12:03:12;;;;;;;;;;;;;;;;;;4926235;29;19926;-58
2021/09/06 12:05:38;;;;;;;;;;;;;;;;;;4927015;29;19930;-57
2021/09/06 12:08:05;;;;;;;;;;;;;;;;;;4922551;29;19933;-58
2021/09/06 12:10:31;;;;;;;;;;;;;;;;;;4944345;29;19931;-58
2021/09/06 12:12:58;;;;;;;;;;;;;;;;;;4910196;29;19926;-58
2021/09/06 12:15:24;;;;;;;;;;;;;;;;;;4908437;29;19919;-58
2021/09/06 12:17:50;;;;;;;;;;;;;;;;;;4915994;29;19937;-57
2021/09/06 12:20:17;;;;;;;;;;;;;;;;;;4927024;29;19930;-57
2021/09/06 12:22:43;;;;;;;;;;;;;;;;;;4931831;29;19942;-58
2021/09/06 12:25:09;;;;;;;;;;;;;;;;;;4924432;29;19927;-57
2021/09/06 12:27:35;;;;;;;;;;;;;;;;;;4905036;29;19923;-58
2021/09/06 12:30:03;;;;;;;;;;;;;;;;;;4907742;29;19923;-58
2021/09/06 12:32:29;;;;;;;;;;;;;;;;;;4905349;29;19927;-58
2021/09/06 12:34:55;;;;;;;;;;;;;;;;;;4924074;29;19939;-59
2021/09/06 12:37:22;;;;;;;;;;;;;;;;;;4905867;28;19923;-58
2021/09/06 12:39:48;;;;;;;;;;;;;;;;;;4925037;28;19935;-58
2021/09/06 12:42:14;;;;;;;;;;;;;;;;;;4924639;28;19922;-58
2021/09/06 12:44:41;;;;;;;;;;;;;;;;;;4923501;29;19915;-58
2021/09/06 12:47:09;;;;;;;;;;;;;;;;;;4926956;29;19929;-58
2021/09/06 12:49:35;;;;;;;;;;;;;;;;;;4939941;28;19931;-58
2021/09/06 12:52:03;;;;;;;;;;;;;;;;;;4944033;29;19927;-58
2021/09/06 12:54:29;;;;;;;;;;;;;;;;;;4927436;29;19933;-58
2021/09/06 12:56:55;;;;;;;;;;;;;;;;;;4924756;29;19935;-58
2021/09/06 12:59:22;;;;;;;;;;;;;;;;;;4922267;29;20010;-58
2021/09/06 13:01:50;;;;;;;;;;;;;;;;;;4924569;29;19923;-58
2021/09/06 13:04:16;;;;;;;;;;;;;;;;;;4930103;28;20028;-58
2021/09/06 13:06:44;;;;;;;;;;;;;;;;;;4944654;29;19918;-58
2021/09/06 13:09:10;;;;;;;;;;;;;;;;;;4917696;29;19923;-58
2021/09/06 13:11:36;;;;;;;;;;;;;;;;;;4921053;29;19927;-58
2021/09/06 13:14:05;;;;;;;;;;;;;;;;;;4923180;29;19923;-58
2021/09/06 13:16:32;;;;;;;;;;;;;;;;;;4945617;29;19926;-58
2021/09/06 13:18:58;;;;;;;;;;;;;;;;;;4924749;28;19967;-58
2021/09/06 13:21:25;;;;;;;;;;;;;;;;;;4944722;29;19923;-58
2021/09/06 13:23:51;;;;;;;;;;;;;;;;;;4943857;29;19922;-58
2021/09/06 13:26:17;;;;;;;;;;;;;;;;;;4921946;29;19926;-57
2021/09/06 13:28:43;;;;;;;;;;;;;;;;;;4927119;29;19922;-58
2021/09/06 13:31:10;;;;;;;;;;;;;;;;;;4922052;29;19923;-58
2021/09/06 13:33:37;;;;;;;;;;;;;;;;;;4921798;29;19938;-57
2021/09/06 13:36:03;;;;;;;;;;;;;;;;;;4915271;29;19937;-58
2021/09/06 13:38:30;;;;;;;;;;;;;;;;;;4907945;29;20029;-58
2021/09/06 13:40:56;;;;;;;;;;;;;;;;;;4904085;29;19935;-58
2021/09/06 13:43:22;;;;;;;;;;;;;;;;;;4907190;29;19937;-58
2021/09/06 13:45:49;;;;;;;;;;;;;;;;;;4902499;29;19919;-59
2021/09/06 13:48:15;;;;;;;;;;;;;;;;;;4925889;29;19919;-58
2021/09/06 13:50:41;;;;;;;;;;;;;;;;;;4934932;28;20014;-58
2021/09/06 13:53:07;;;;;;;;;;;;;;;;;;4924071;29;19933;-57
2021/09/06 13:55:34;;;;;;;;;;;;;;;;;;4913751;29;19915;-58
2021/09/06 13:58:00;;;;;;;;;;;;;;;;;;4925743;29;19922;-58
2021/09/06 14:00:26;;;;;;;;;;;;;;;;;;4923438;29;19938;-58
2021/09/06 14:02:53;;;;;;;;;;;;;;;;;;4924434;29;19934;-58
2021/09/06 14:05:19;;;;;;;;;;;;;;;;;;4926628;29;19914;-58
2021/09/06 14:07:47;;;;;;;;;;;;;;;;;;4924373;29;19922;-59
2021/09/06 14:10:13;;;;;;;;;;;;;;;;;;4928956;29;19918;-58
2021/09/06 14:12:39;;;;;;;;;;;;;;;;;;4910084;29;19978;-61
2021/09/06 14:15:05;;;;;;;;;;;;;;;;;;4909638;29;19923;-59
2021/09/06 14:17:32;;;;;;;;;;;;;;;;;;4918242;29;19933;-58
2021/09/06 14:19:58;;;;;;;;;;;;;;;;;;4929353;29;19922;-58
2021/09/06 14:22:24;;;;;;;;;;;;;;;;;;4926122;29;19937;-58
2021/09/06 14:24:51;;;;;;;;;;;;;;;;;;4937595;29;19926;-58
2021/09/06 14:27:17;;;;;;;;;;;;;;;;;;4941618;28;19929;-58
2021/09/06 14:29:43;;;;;;;;;;;;;;;;;;4928333;29;19938;-58
2021/09/06 14:32:12;;;;;;;;;;;;;;;;;;4924325;29;19919;-59
2021/09/06 14:34:42;;;;;;;;;;;;;;;;;;4945575;29;19919;-58
2021/09/06 14:37:09;;;;;;;;;;;;;;;;;;4924891;28;19931;-58
2021/09/06 14:39:35;;;;;;;;;;;;;;;;;;4929088;29;20009;-58
2021/09/06 14:42:03;;;;;;;;;;;;;;;;;;4926574;28;20117;-58
2021/09/06 14:44:30;;;;;;;;;;;;;;;;;;4909246;29;20003;-58
2021/09/06 14:46:56;;;;;;;;;;;;;;;;;;4909807;29;19915;-58
2021/09/06 14:49:22;;;;;;;;;;;;;;;;;;4922728;29;19922;-58
2021/09/06 14:51:49;;;;;;;;;;;;;;;;;;4928522;29;19959;-58
2021/09/06 14:54:15;;;;;;;;;;;;;;;;;;4940691;28;19939;-58
2021/09/06 14:56:43;;;;;;;;;;;;;;;;;;4919385;29;19914;-58
2021/09/06 14:59:09;;;;;;;;;;;;;;;;;;4912561;29;19926;-58
2021/09/06 15:01:37;;;;;;;;;;;;;;;;;;4911392;29;19918;-58
2021/09/06 15:04:03;;;;;;;;;;;;;;;;;;4915742;29;19919;-58
2021/09/06 15:06:29;;;;;;;;;;;;;;;;;;4927670;29;19926;-58
2021/09/06 15:08:56;;;;;;;;;;;;;;;;;;4924389;29;20021;-58
2021/09/06 15:11:23;;;;;;;;;;;;;;;;;;4917112;29;19941;-58
2021/09/06 15:13:49;;;;;;;;;;;;;;;;;;4923495;29;19915;-57
2021/09/06 15:16:15;;;;;;;;;;;;;;;;;;4906319;29;19926;-57
2021/09/06 15:18:41;;;;;;;;;;;;;;;;;;4906510;28;19934;-58
2021/09/06 15:21:08;;;;;;;;;;;;;;;;;;4928047;29;19929;-57
2021/09/06 15:23:34;;;;;;;;;;;;;;;;;;4944620;29;20005;-58
2021/09/06 15:26:02;;;;;;;;;;;;;;;;;;4905119;29;20050;-57
2021/09/06 15:28:29;;;;;;;;;;;;;;;;;;4909463;29;19919;-57
2021/09/06 15:30:55;;;;;;;;;;;;;;;;;;4905556;29;19939;-57
2021/09/06 15:33:22;;;;;;;;;;;;;;;;;;4910145;29;19918;-57
2021/09/06 15:35:50;;;;;;;;;;;;;;;;;;4919705;29;19937;-57
2021/09/06 15:38:16;;;;;;;;;;;;;;;;;;4927801;29;19923;-57
2021/09/06 15:40:43;;;;;;;;;;;;;;;;;;4923718;29;19922;-57
2021/09/06 15:43:09;;;;;;;;;;;;;;;;;;4927551;29;20005;-58
2021/09/06 15:45:35;;;;;;;;;;;;;;;;;;4914949;29;19933;-57
2021/09/06 15:48:02;;;;;;;;;;;;;;;;;;4908852;29;19934;-56
2021/09/06 15:50:31;;;;;;;;;;;;;;;;;;4928224;29;19938;-58
2021/09/06 15:52:57;;;;;;;;;;;;;;;;;;4942826;29;19926;-57
2021/09/06 15:55:23;;;;;;;;;;;;;;;;;;4934325;28;19919;-57
2021/09/06 15:57:52;;;;;;;;;;;;;;;;;;4927007;29;19942;-57
2021/09/06 16:00:18;;;;;;;;;;;;;;;;;;4923135;28;20009;-57
2021/09/06 16:02:44;;;;;;;;;;;;;;;;;;4927221;29;20010;-57
2021/09/06 16:05:11;;;;;;;;;;;;;;;;;;4926951;29;19938;-57
2021/09/06 16:07:38;;;;;;;;;;;;;;;;;;4905211;29;19930;-57
2021/09/06 16:10:04;;;;;;;;;;;;;;;;;;4909430;29;20009;-57
2021/09/06 16:12:34;;;;;;;;;;;;;;;;;;4917497;28;19919;-58
2021/09/06 16:15:00;;;;;;;;;;;;;;;;;;4926805;29;19958;-58
2021/09/06 16:17:27;;;;;;;;;;;;;;;;;;4914623;29;19918;-57
2021/09/06 16:19:53;;;;;;;;;;;;;;;;;;4926082;28;19938;-57
2021/09/06 16:22:21;;;;;;;;;;;;;;;;;;4939962;28;20013;-57
2021/09/06 16:24:48;;;;;;;;;;;;;;;;;;4944501;29;19929;-59